sensor_id;sensor_type;location;lat;lon;timestamp;P1;durP1;ratioP1;P2;durP2;ratioP2
8094;SDS011;4090;49.270;8.696;2024-03-29T00:01:15;2.53;;;2.00;;
8094;SDS011;4090;49.270;8.696;2024-03-29T00:03:56;3.63;;;2.03;;
8094;SDS011;4090;49.270;8.696;2024-03-29T00:06:37;3.83;;;1.90;;
8094;SDS011;4090;49.270;8.696;2024-03-29T00:09:18;2.17;;;1.85;;
8094;SDS011;4090;49.270;8.696;2024-03-29T00:11:59;2.85;;;2.00;;
8094;SDS011;4090;49.270;8.696;2024-03-29T00:14:42;2.28;;;1.88;;
8094;SDS011;4090;49.270;8.696;2024-03-29T00:17:23;5.25;;;1.88;;
8094;SDS011;4090;49.270;8.696;2024-03-29T00:20:04;4.53;;;1.60;;
8094;SDS011;4090;49.270;8.696;2024-03-29T00:22:46;4.25;;;1.67;;
8094;SDS011;4090;49.270;8.696;2024-03-29T00:25:27;2.25;;;1.15;;
8094;SDS011;4090;49.270;8.696;2024-03-29T00:28:08;2.28;;;1.38;;
8094;SDS011;4090;49.270;8.696;2024-03-29T00:30:51;3.83;;;1.38;;
8094;SDS011;4090;49.270;8.696;2024-03-29T00:33:32;4.10;;;1.55;;
8094;SDS011;4090;49.270;8.696;2024-03-29T00:36:12;2.83;;;1.80;;
8094;SDS011;4090;49.270;8.696;2024-03-29T00:38:53;6.03;;;2.53;;
8094;SDS011;4090;49.270;8.696;2024-03-29T00:41:34;3.47;;;2.10;;
8094;SDS011;4090;49.270;8.696;2024-03-29T00:44:15;3.90;;;2.15;;
8094;SDS011;4090;49.270;8.696;2024-03-29T00:46:58;5.03;;;2.17;;
8094;SDS011;4090;49.270;8.696;2024-03-29T00:49:39;5.90;;;1.80;;
8094;SDS011;4090;49.270;8.696;2024-03-29T00:52:20;2.67;;;1.70;;
8094;SDS011;4090;49.270;8.696;2024-03-29T00:55:01;4.07;;;2.30;;
8094;SDS011;4090;49.270;8.696;2024-03-29T00:57:42;1.90;;;1.70;;
8094;SDS011;4090;49.270;8.696;2024-03-29T01:00:23;5.32;;;2.03;;
8094;SDS011;4090;49.270;8.696;2024-03-29T01:03:06;3.42;;;1.67;;
8094;SDS011;4090;49.270;8.696;2024-03-29T01:05:47;2.50;;;1.50;;
8094;SDS011;4090;49.270;8.696;2024-03-29T01:08:28;3.65;;;1.70;;
8094;SDS011;4090;49.270;8.696;2024-03-29T01:11:08;4.65;;;1.77;;
8094;SDS011;4090;49.270;8.696;2024-03-29T01:13:49;3.53;;;1.33;;
8094;SDS011;4090;49.270;8.696;2024-03-29T01:16:30;2.88;;;1.10;;
8094;SDS011;4090;49.270;8.696;2024-03-29T01:19:13;1.13;;;0.82;;
8094;SDS011;4090;49.270;8.696;2024-03-29T01:21:54;1.60;;;1.00;;
8094;SDS011;4090;49.270;8.696;2024-03-29T01:24:35;3.17;;;0.90;;
8094;SDS011;4090;49.270;8.696;2024-03-29T01:27:16;1.50;;;0.73;;
8094;SDS011;4090;49.270;8.696;2024-03-29T01:29:57;2.40;;;0.73;;
8094;SDS011;4090;49.270;8.696;2024-03-29T01:32:38;1.05;;;0.95;;
8094;SDS011;4090;49.270;8.696;2024-03-29T01:35:20;0.80;;;0.80;;
8094;SDS011;4090;49.270;8.696;2024-03-29T01:38:01;1.45;;;0.80;;
8094;SDS011;4090;49.270;8.696;2024-03-29T01:40:42;1.55;;;0.70;;
8094;SDS011;4090;49.270;8.696;2024-03-29T01:43:23;2.40;;;0.80;;
8094;SDS011;4090;49.270;8.696;2024-03-29T01:46:07;0.70;;;0.70;;
8094;SDS011;4090;49.270;8.696;2024-03-29T01:48:49;1.33;;;0.82;;
8094;SDS011;4090;49.270;8.696;2024-03-29T01:51:34;2.17;;;0.80;;
8094;SDS011;4090;49.270;8.696;2024-03-29T01:54:19;1.63;;;0.77;;
8094;SDS011;4090;49.270;8.696;2024-03-29T01:57:00;1.98;;;0.70;;
8094;SDS011;4090;49.270;8.696;2024-03-29T01:59:43;2.20;;;0.77;;
8094;SDS011;4090;49.270;8.696;2024-03-29T02:02:27;1.70;;;0.90;;
8094;SDS011;4090;49.270;8.696;2024-03-29T02:05:09;1.63;;;0.80;;
8094;SDS011;4090;49.270;8.696;2024-03-29T02:07:53;1.00;;;0.80;;
8094;SDS011;4090;49.270;8.696;2024-03-29T02:10:37;1.77;;;1.00;;
8094;SDS011;4090;49.270;8.696;2024-03-29T02:13:19;2.00;;;0.73;;
8094;SDS011;4090;49.270;8.696;2024-03-29T02:16:01;1.10;;;0.70;;
8094;SDS011;4090;49.270;8.696;2024-03-29T02:18:43;1.00;;;0.70;;
8094;SDS011;4090;49.270;8.696;2024-03-29T02:21:25;0.82;;;0.63;;
8094;SDS011;4090;49.270;8.696;2024-03-29T02:24:09;2.17;;;1.02;;
8094;SDS011;4090;49.270;8.696;2024-03-29T02:26:51;0.77;;;0.63;;
8094;SDS011;4090;49.270;8.696;2024-03-29T02:29:35;0.50;;;0.50;;
8094;SDS011;4090;49.270;8.696;2024-03-29T02:32:17;1.75;;;0.85;;
8094;SDS011;4090;49.270;8.696;2024-03-29T02:34:59;2.00;;;0.70;;
8094;SDS011;4090;49.270;8.696;2024-03-29T02:37:41;1.48;;;0.60;;
8094;SDS011;4090;49.270;8.696;2024-03-29T02:40:24;0.63;;;0.63;;
8094;SDS011;4090;49.270;8.696;2024-03-29T02:43:06;1.42;;;0.60;;
8094;SDS011;4090;49.270;8.696;2024-03-29T02:45:47;3.25;;;0.93;;
8094;SDS011;4090;49.270;8.696;2024-03-29T02:48:29;0.95;;;0.70;;
8094;SDS011;4090;49.270;8.696;2024-03-29T02:51:11;0.50;;;0.47;;
8094;SDS011;4090;49.270;8.696;2024-03-29T02:53:52;1.30;;;0.68;;
8094;SDS011;4090;49.270;8.696;2024-03-29T02:56:35;2.15;;;0.75;;
8094;SDS011;4090;49.270;8.696;2024-03-29T02:59:16;1.05;;;0.60;;
8094;SDS011;4090;49.270;8.696;2024-03-29T03:01:58;1.10;;;0.75;;
8094;SDS011;4090;49.270;8.696;2024-03-29T03:04:38;1.83;;;0.85;;
8094;SDS011;4090;49.270;8.696;2024-03-29T03:07:20;2.72;;;0.80;;
8094;SDS011;4090;49.270;8.696;2024-03-29T03:10:20;0.45;;;0.45;;
8094;SDS011;4090;49.270;8.696;2024-03-29T03:13:21;0.77;;;0.60;;
8094;SDS011;4090;49.270;8.696;2024-03-29T03:16:03;1.13;;;0.68;;
8094;SDS011;4090;49.270;8.696;2024-03-29T03:18:45;1.77;;;0.80;;
8094;SDS011;4090;49.270;8.696;2024-03-29T03:21:26;1.23;;;0.60;;
8094;SDS011;4090;49.270;8.696;2024-03-29T03:24:08;1.38;;;0.95;;
8094;SDS011;4090;49.270;8.696;2024-03-29T03:26:52;0.85;;;0.60;;
8094;SDS011;4090;49.270;8.696;2024-03-29T03:29:35;3.22;;;0.93;;
8094;SDS011;4090;49.270;8.696;2024-03-29T03:32:17;1.38;;;0.73;;
8094;SDS011;4090;49.270;8.696;2024-03-29T03:34:58;0.63;;;0.55;;
8094;SDS011;4090;49.270;8.696;2024-03-29T03:37:39;1.20;;;0.70;;
8094;SDS011;4090;49.270;8.696;2024-03-29T03:40:20;0.70;;;0.60;;
8094;SDS011;4090;49.270;8.696;2024-03-29T03:43:03;1.33;;;0.50;;
8094;SDS011;4090;49.270;8.696;2024-03-29T03:45:46;0.88;;;0.70;;
8094;SDS011;4090;49.270;8.696;2024-03-29T03:48:28;0.60;;;0.60;;
8094;SDS011;4090;49.270;8.696;2024-03-29T03:51:09;1.45;;;0.80;;
8094;SDS011;4090;49.270;8.696;2024-03-29T03:53:51;0.60;;;0.40;;
8094;SDS011;4090;49.270;8.696;2024-03-29T03:56:32;0.73;;;0.60;;
8094;SDS011;4090;49.270;8.696;2024-03-29T03:59:14;2.10;;;0.80;;
8094;SDS011;4090;49.270;8.696;2024-03-29T04:01:56;1.05;;;0.80;;
8094;SDS011;4090;49.270;8.696;2024-03-29T04:04:38;0.80;;;0.60;;
8094;SDS011;4090;49.270;8.696;2024-03-29T04:07:19;0.90;;;0.60;;
8094;SDS011;4090;49.270;8.696;2024-03-29T04:10:01;1.05;;;0.60;;
8094;SDS011;4090;49.270;8.696;2024-03-29T04:12:43;0.60;;;0.60;;
8094;SDS011;4090;49.270;8.696;2024-03-29T04:15:24;1.73;;;0.70;;
8094;SDS011;4090;49.270;8.696;2024-03-29T04:18:08;0.88;;;0.60;;
8094;SDS011;4090;49.270;8.696;2024-03-29T04:20:55;1.15;;;0.73;;
8094;SDS011;4090;49.270;8.696;2024-03-29T04:23:37;2.28;;;0.98;;
8094;SDS011;4090;49.270;8.696;2024-03-29T04:26:18;2.83;;;0.70;;
8094;SDS011;4090;49.270;8.696;2024-03-29T04:29:00;2.78;;;0.55;;
8094;SDS011;4090;49.270;8.696;2024-03-29T04:31:41;1.70;;;0.70;;
8094;SDS011;4090;49.270;8.696;2024-03-29T04:34:26;2.53;;;0.80;;
8094;SDS011;4090;49.270;8.696;2024-03-29T04:37:08;0.70;;;0.65;;
8094;SDS011;4090;49.270;8.696;2024-03-29T04:39:49;0.52;;;0.52;;
8094;SDS011;4090;49.270;8.696;2024-03-29T04:42:31;1.20;;;0.90;;
8094;SDS011;4090;49.270;8.696;2024-03-29T04:45:13;5.07;;;1.02;;
8094;SDS011;4090;49.270;8.696;2024-03-29T04:47:55;1.50;;;0.88;;
8094;SDS011;4090;49.270;8.696;2024-03-29T04:50:39;1.20;;;0.88;;
8094;SDS011;4090;49.270;8.696;2024-03-29T04:53:21;1.90;;;0.90;;
8094;SDS011;4090;49.270;8.696;2024-03-29T04:56:03;1.13;;;0.82;;
8094;SDS011;4090;49.270;8.696;2024-03-29T04:58:46;1.48;;;0.90;;
8094;SDS011;4090;49.270;8.696;2024-03-29T05:01:28;2.90;;;0.80;;
8094;SDS011;4090;49.270;8.696;2024-03-29T05:04:10;2.13;;;0.80;;
8094;SDS011;4090;49.270;8.696;2024-03-29T05:06:54;0.65;;;0.65;;
8094;SDS011;4090;49.270;8.696;2024-03-29T05:09:37;0.70;;;0.60;;
8094;SDS011;4090;49.270;8.696;2024-03-29T05:12:18;0.75;;;0.57;;
8094;SDS011;4090;49.270;8.696;2024-03-29T05:15:00;0.60;;;0.57;;
8094;SDS011;4090;49.270;8.696;2024-03-29T05:17:42;2.55;;;1.27;;
8094;SDS011;4090;49.270;8.696;2024-03-29T05:20:24;1.10;;;0.90;;
8094;SDS011;4090;49.270;8.696;2024-03-29T05:23:08;1.20;;;1.10;;
8094;SDS011;4090;49.270;8.696;2024-03-29T05:25:49;1.30;;;0.82;;
8094;SDS011;4090;49.270;8.696;2024-03-29T05:28:32;1.88;;;1.00;;
8094;SDS011;4090;49.270;8.696;2024-03-29T05:31:14;1.52;;;1.05;;
8094;SDS011;4090;49.270;8.696;2024-03-29T05:33:56;2.17;;;1.00;;
8094;SDS011;4090;49.270;8.696;2024-03-29T05:36:38;0.95;;;0.88;;
8094;SDS011;4090;49.270;8.696;2024-03-29T05:39:21;1.27;;;1.05;;
8094;SDS011;4090;49.270;8.696;2024-03-29T05:42:03;1.88;;;1.10;;
8094;SDS011;4090;49.270;8.696;2024-03-29T05:44:45;4.68;;;1.00;;
8094;SDS011;4090;49.270;8.696;2024-03-29T05:47:27;1.42;;;0.90;;
8094;SDS011;4090;49.270;8.696;2024-03-29T05:50:09;0.80;;;0.80;;
8094;SDS011;4090;49.270;8.696;2024-03-29T05:52:51;1.23;;;0.90;;
8094;SDS011;4090;49.270;8.696;2024-03-29T05:55:35;2.13;;;1.02;;
8094;SDS011;4090;49.270;8.696;2024-03-29T05:58:17;1.88;;;0.85;;
8094;SDS011;4090;49.270;8.696;2024-03-29T06:01:00;2.30;;;0.80;;
8094;SDS011;4090;49.270;8.696;2024-03-29T06:03:42;1.02;;;0.90;;
8094;SDS011;4090;49.270;8.696;2024-03-29T06:06:24;0.80;;;0.80;;
8094;SDS011;4090;49.270;8.696;2024-03-29T06:09:06;1.23;;;0.98;;
8094;SDS011;4090;49.270;8.696;2024-03-29T06:11:49;1.25;;;0.90;;
8094;SDS011;4090;49.270;8.696;2024-03-29T06:14:31;3.00;;;1.00;;
8094;SDS011;4090;49.270;8.696;2024-03-29T06:17:31;3.05;;;0.80;;
8094;SDS011;4090;49.270;8.696;2024-03-29T06:20:13;1.73;;;1.13;;
8094;SDS011;4090;49.270;8.696;2024-03-29T06:22:54;1.88;;;1.10;;
8094;SDS011;4090;49.270;8.696;2024-03-29T06:25:36;2.35;;;0.93;;
8094;SDS011;4090;49.270;8.696;2024-03-29T06:28:21;1.23;;;0.82;;
8094;SDS011;4090;49.270;8.696;2024-03-29T06:31:03;1.25;;;1.15;;
8094;SDS011;4090;49.270;8.696;2024-03-29T06:33:45;1.23;;;0.90;;
8094;SDS011;4090;49.270;8.696;2024-03-29T06:36:26;1.27;;;0.90;;
8094;SDS011;4090;49.270;8.696;2024-03-29T06:39:10;1.65;;;1.42;;
8094;SDS011;4090;49.270;8.696;2024-03-29T06:41:52;2.13;;;1.20;;
8094;SDS011;4090;49.270;8.696;2024-03-29T06:44:35;1.65;;;0.90;;
8094;SDS011;4090;49.270;8.696;2024-03-29T06:47:18;1.35;;;1.00;;
8094;SDS011;4090;49.270;8.696;2024-03-29T06:50:03;0.50;;;0.50;;
8094;SDS011;4090;49.270;8.696;2024-03-29T06:52:45;1.13;;;0.63;;
8094;SDS011;4090;49.270;8.696;2024-03-29T06:55:27;0.70;;;0.70;;
8094;SDS011;4090;49.270;8.696;2024-03-29T06:58:09;1.23;;;0.70;;
8094;SDS011;4090;49.270;8.696;2024-03-29T07:00:52;1.05;;;0.70;;
8094;SDS011;4090;49.270;8.696;2024-03-29T07:03:34;1.33;;;1.05;;
8094;SDS011;4090;49.270;8.696;2024-03-29T07:06:17;0.63;;;0.63;;
8094;SDS011;4090;49.270;8.696;2024-03-29T07:08:59;2.03;;;0.57;;
8094;SDS011;4090;49.270;8.696;2024-03-29T07:11:40;0.65;;;0.60;;
8094;SDS011;4090;49.270;8.696;2024-03-29T07:14:22;1.73;;;0.80;;
8094;SDS011;4090;49.270;8.696;2024-03-29T07:17:08;0.73;;;0.50;;
8094;SDS011;4090;49.270;8.696;2024-03-29T07:19:49;0.70;;;0.60;;
8094;SDS011;4090;49.270;8.696;2024-03-29T07:22:31;1.08;;;0.57;;
8094;SDS011;4090;49.270;8.696;2024-03-29T07:25:13;1.33;;;0.40;;
8094;SDS011;4090;49.270;8.696;2024-03-29T07:27:55;0.50;;;0.50;;
8094;SDS011;4090;49.270;8.696;2024-03-29T07:30:38;1.00;;;0.70;;
8094;SDS011;4090;49.270;8.696;2024-03-29T07:33:22;1.75;;;0.80;;
8094;SDS011;4090;49.270;8.696;2024-03-29T07:36:06;0.60;;;0.60;;
8094;SDS011;4090;49.270;8.696;2024-03-29T07:38:50;1.17;;;0.80;;
8094;SDS011;4090;49.270;8.696;2024-03-29T07:41:32;3.75;;;0.90;;
8094;SDS011;4090;49.270;8.696;2024-03-29T07:44:14;0.88;;;0.88;;
8094;SDS011;4090;49.270;8.696;2024-03-29T07:46:55;0.95;;;0.90;;
8094;SDS011;4090;49.270;8.696;2024-03-29T07:49:39;2.00;;;1.20;;
8094;SDS011;4090;49.270;8.696;2024-03-29T07:52:21;2.20;;;1.20;;
8094;SDS011;4090;49.270;8.696;2024-03-29T07:55:03;1.30;;;1.15;;
8094;SDS011;4090;49.270;8.696;2024-03-29T07:57:45;2.90;;;1.17;;
8094;SDS011;4090;49.270;8.696;2024-03-29T08:00:27;4.60;;;1.30;;
8094;SDS011;4090;49.270;8.696;2024-03-29T08:03:12;4.20;;;1.50;;
8094;SDS011;4090;49.270;8.696;2024-03-29T08:05:57;2.13;;;1.20;;
8094;SDS011;4090;49.270;8.696;2024-03-29T08:08:40;2.95;;;1.48;;
8094;SDS011;4090;49.270;8.696;2024-03-29T08:11:22;1.77;;;1.52;;
8094;SDS011;4090;49.270;8.696;2024-03-29T08:14:04;3.08;;;2.20;;
8094;SDS011;4090;49.270;8.696;2024-03-29T08:16:46;7.18;;;3.13;;
8094;SDS011;4090;49.270;8.696;2024-03-29T08:19:28;6.38;;;3.45;;
8094;SDS011;4090;49.270;8.696;2024-03-29T08:22:11;3.17;;;1.95;;
8094;SDS011;4090;49.270;8.696;2024-03-29T08:24:53;5.70;;;1.70;;
8094;SDS011;4090;49.270;8.696;2024-03-29T08:27:37;1.58;;;1.30;;
8094;SDS011;4090;49.270;8.696;2024-03-29T08:30:19;3.25;;;1.20;;
8094;SDS011;4090;49.270;8.696;2024-03-29T08:33:01;1.75;;;1.20;;
8094;SDS011;4090;49.270;8.696;2024-03-29T08:35:44;2.90;;;1.30;;
8094;SDS011;4090;49.270;8.696;2024-03-29T08:38:27;1.98;;;1.40;;
8094;SDS011;4090;49.270;8.696;2024-03-29T08:41:09;3.50;;;1.48;;
8094;SDS011;4090;49.270;8.696;2024-03-29T08:43:51;4.00;;;1.30;;
8094;SDS011;4090;49.270;8.696;2024-03-29T08:46:33;1.85;;;1.48;;
8094;SDS011;4090;49.270;8.696;2024-03-29T08:49:14;3.72;;;1.38;;
8094;SDS011;4090;49.270;8.696;2024-03-29T08:51:56;5.22;;;1.45;;
8094;SDS011;4090;49.270;8.696;2024-03-29T08:54:40;2.42;;;1.48;;
8094;SDS011;4090;49.270;8.696;2024-03-29T08:57:23;3.55;;;1.63;;
8094;SDS011;4090;49.270;8.696;2024-03-29T09:00:05;5.30;;;1.80;;
8094;SDS011;4090;49.270;8.696;2024-03-29T09:02:49;5.65;;;1.55;;
8094;SDS011;4090;49.270;8.696;2024-03-29T09:05:31;1.83;;;1.40;;
8094;SDS011;4090;49.270;8.696;2024-03-29T09:08:13;1.55;;;1.40;;
8094;SDS011;4090;49.270;8.696;2024-03-29T09:10:56;1.88;;;1.40;;
8094;SDS011;4090;49.270;8.696;2024-03-29T09:13:38;2.33;;;1.75;;
8094;SDS011;4090;49.270;8.696;2024-03-29T09:16:20;2.63;;;1.73;;
8094;SDS011;4090;49.270;8.696;2024-03-29T09:19:02;1.88;;;1.40;;
8094;SDS011;4090;49.270;8.696;2024-03-29T09:21:45;3.25;;;1.55;;
8094;SDS011;4090;49.270;8.696;2024-03-29T09:24:27;3.08;;;1.33;;
8094;SDS011;4090;49.270;8.696;2024-03-29T09:27:10;2.63;;;1.30;;
8094;SDS011;4090;49.270;8.696;2024-03-29T09:29:52;1.58;;;1.05;;
8094;SDS011;4090;49.270;8.696;2024-03-29T09:32:36;2.03;;;1.40;;
8094;SDS011;4090;49.270;8.696;2024-03-29T09:35:17;1.48;;;1.30;;
8094;SDS011;4090;49.270;8.696;2024-03-29T09:37:59;5.40;;;1.70;;
8094;SDS011;4090;49.270;8.696;2024-03-29T09:40:42;2.13;;;1.40;;
8094;SDS011;4090;49.270;8.696;2024-03-29T09:43:26;2.35;;;1.30;;
8094;SDS011;4090;49.270;8.696;2024-03-29T09:46:08;2.30;;;1.20;;
8094;SDS011;4090;49.270;8.696;2024-03-29T09:48:50;4.15;;;1.60;;
8094;SDS011;4090;49.270;8.696;2024-03-29T09:51:34;1.90;;;1.23;;
8094;SDS011;4090;49.270;8.696;2024-03-29T09:54:17;1.73;;;1.40;;
8094;SDS011;4090;49.270;8.696;2024-03-29T09:56:59;1.40;;;1.30;;
8094;SDS011;4090;49.270;8.696;2024-03-29T09:59:42;1.52;;;1.40;;
8094;SDS011;4090;49.270;8.696;2024-03-29T10:02:25;2.33;;;1.10;;
8094;SDS011;4090;49.270;8.696;2024-03-29T10:05:09;1.80;;;1.08;;
8094;SDS011;4090;49.270;8.696;2024-03-29T10:07:53;1.20;;;1.10;;
8094;SDS011;4090;49.270;8.696;2024-03-29T10:10:36;1.77;;;1.00;;
8094;SDS011;4090;49.270;8.696;2024-03-29T10:13:18;1.20;;;1.10;;
8094;SDS011;4090;49.270;8.696;2024-03-29T10:16:02;1.40;;;1.10;;
8094;SDS011;4090;49.270;8.696;2024-03-29T10:18:47;2.33;;;1.20;;
8094;SDS011;4090;49.270;8.696;2024-03-29T10:21:29;5.47;;;1.40;;
8094;SDS011;4090;49.270;8.696;2024-03-29T10:24:11;2.38;;;1.42;;
8094;SDS011;4090;49.270;8.696;2024-03-29T10:26:55;3.05;;;1.25;;
8094;SDS011;4090;49.270;8.696;2024-03-29T10:29:36;2.30;;;1.30;;
8094;SDS011;4090;49.270;8.696;2024-03-29T10:32:22;3.90;;;1.67;;
8094;SDS011;4090;49.270;8.696;2024-03-29T10:35:05;2.00;;;1.52;;
8094;SDS011;4090;49.270;8.696;2024-03-29T10:37:47;2.40;;;1.35;;
8094;SDS011;4090;49.270;8.696;2024-03-29T10:40:30;4.60;;;1.58;;
8094;SDS011;4090;49.270;8.696;2024-03-29T10:43:12;2.53;;;1.55;;
8094;SDS011;4090;49.270;8.696;2024-03-29T10:45:54;4.13;;;1.70;;
8094;SDS011;4090;49.270;8.696;2024-03-29T10:48:40;3.67;;;1.88;;
8094;SDS011;4090;49.270;8.696;2024-03-29T10:51:24;1.88;;;1.63;;
8094;SDS011;4090;49.270;8.696;2024-03-29T10:54:08;2.42;;;1.70;;
8094;SDS011;4090;49.270;8.696;2024-03-29T10:56:54;1.67;;;1.52;;
8094;SDS011;4090;49.270;8.696;2024-03-29T10:59:40;2.60;;;1.98;;
8094;SDS011;4090;49.270;8.696;2024-03-29T11:02:31;3.20;;;1.90;;
8094;SDS011;4090;49.270;8.696;2024-03-29T11:05:18;3.58;;;2.22;;
8094;SDS011;4090;49.270;8.696;2024-03-29T11:08:01;4.32;;;2.13;;
8094;SDS011;4090;49.270;8.696;2024-03-29T11:10:44;4.53;;;2.40;;
8094;SDS011;4090;49.270;8.696;2024-03-29T11:13:31;4.47;;;2.00;;
8094;SDS011;4090;49.270;8.696;2024-03-29T11:16:15;4.13;;;2.10;;
8094;SDS011;4090;49.270;8.696;2024-03-29T11:18:59;2.53;;;2.00;;
8094;SDS011;4090;49.270;8.696;2024-03-29T11:21:46;4.18;;;2.10;;
8094;SDS011;4090;49.270;8.696;2024-03-29T11:24:29;3.63;;;1.80;;
8094;SDS011;4090;49.270;8.696;2024-03-29T11:27:14;3.88;;;1.95;;
8094;SDS011;4090;49.270;8.696;2024-03-29T11:29:56;3.45;;;2.20;;
8094;SDS011;4090;49.270;8.696;2024-03-29T11:32:38;2.50;;;1.80;;
8094;SDS011;4090;49.270;8.696;2024-03-29T11:35:21;4.03;;;1.88;;
8094;SDS011;4090;49.270;8.696;2024-03-29T11:38:05;3.28;;;2.03;;
8094;SDS011;4090;49.270;8.696;2024-03-29T11:40:54;4.10;;;2.08;;
8094;SDS011;4090;49.270;8.696;2024-03-29T11:43:36;3.67;;;2.05;;
8094;SDS011;4090;49.270;8.696;2024-03-29T11:46:18;3.15;;;1.90;;
8094;SDS011;4090;49.270;8.696;2024-03-29T11:49:01;3.75;;;1.92;;
8094;SDS011;4090;49.270;8.696;2024-03-29T11:51:44;3.97;;;2.00;;
8094;SDS011;4090;49.270;8.696;2024-03-29T11:54:29;2.30;;;1.73;;
8094;SDS011;4090;49.270;8.696;2024-03-29T11:57:18;2.40;;;1.95;;
8094;SDS011;4090;49.270;8.696;2024-03-29T11:59:59;3.03;;;1.73;;
8094;SDS011;4090;49.270;8.696;2024-03-29T12:02:41;2.58;;;2.00;;
8094;SDS011;4090;49.270;8.696;2024-03-29T12:05:23;3.00;;;1.80;;
8094;SDS011;4090;49.270;8.696;2024-03-29T12:08:06;2.28;;;2.00;;
8094;SDS011;4090;49.270;8.696;2024-03-29T12:10:50;4.88;;;3.03;;
8094;SDS011;4090;49.270;8.696;2024-03-29T12:13:32;8.75;;;4.60;;
8094;SDS011;4090;49.270;8.696;2024-03-29T12:16:14;8.63;;;4.93;;
8094;SDS011;4090;49.270;8.696;2024-03-29T12:18:56;9.55;;;4.25;;
8094;SDS011;4090;49.270;8.696;2024-03-29T12:21:38;5.93;;;3.22;;
8094;SDS011;4090;49.270;8.696;2024-03-29T12:24:20;3.45;;;1.92;;
8094;SDS011;4090;49.270;8.696;2024-03-29T12:27:04;4.68;;;2.00;;
8094;SDS011;4090;49.270;8.696;2024-03-29T12:29:46;2.65;;;1.83;;
8094;SDS011;4090;49.270;8.696;2024-03-29T12:32:28;2.78;;;1.90;;
8094;SDS011;4090;49.270;8.696;2024-03-29T12:35:10;3.03;;;2.03;;
8094;SDS011;4090;49.270;8.696;2024-03-29T12:37:53;2.78;;;1.98;;
8094;SDS011;4090;49.270;8.696;2024-03-29T12:40:37;2.38;;;1.92;;
8094;SDS011;4090;49.270;8.696;2024-03-29T12:43:22;2.65;;;1.95;;
8094;SDS011;4090;49.270;8.696;2024-03-29T12:46:04;2.10;;;1.88;;
8094;SDS011;4090;49.270;8.696;2024-03-29T12:48:46;2.30;;;2.03;;
8094;SDS011;4090;49.270;8.696;2024-03-29T12:51:28;2.50;;;1.98;;
8094;SDS011;4090;49.270;8.696;2024-03-29T12:54:10;3.35;;;2.28;;
8094;SDS011;4090;49.270;8.696;2024-03-29T12:56:52;2.65;;;2.33;;
8094;SDS011;4090;49.270;8.696;2024-03-29T12:59:36;3.88;;;2.50;;
8094;SDS011;4090;49.270;8.696;2024-03-29T13:02:18;5.70;;;4.22;;
8094;SDS011;4090;49.270;8.696;2024-03-29T13:05:02;6.95;;;5.50;;
8094;SDS011;4090;49.270;8.696;2024-03-29T13:07:45;16.10;;;11.85;;
8094;SDS011;4090;49.270;8.696;2024-03-29T13:10:27;21.05;;;14.77;;
8094;SDS011;4090;49.270;8.696;2024-03-29T13:13:09;12.73;;;9.13;;
8094;SDS011;4090;49.270;8.696;2024-03-29T13:15:53;7.93;;;5.97;;
8094;SDS011;4090;49.270;8.696;2024-03-29T13:18:34;6.93;;;4.43;;
8094;SDS011;4090;49.270;8.696;2024-03-29T13:21:16;4.00;;;2.80;;
8094;SDS011;4090;49.270;8.696;2024-03-29T13:23:58;4.53;;;2.60;;
8094;SDS011;4090;49.270;8.696;2024-03-29T13:26:40;4.05;;;2.80;;
8094;SDS011;4090;49.270;8.696;2024-03-29T13:29:22;4.18;;;2.85;;
8094;SDS011;4090;49.270;8.696;2024-03-29T13:32:05;4.38;;;2.97;;
8094;SDS011;4090;49.270;8.696;2024-03-29T13:34:47;4.60;;;2.80;;
8094;SDS011;4090;49.270;8.696;2024-03-29T13:37:29;5.25;;;2.80;;
8094;SDS011;4090;49.270;8.696;2024-03-29T13:40:11;8.07;;;3.10;;
8094;SDS011;4090;49.270;8.696;2024-03-29T13:42:53;6.45;;;2.90;;
8094;SDS011;4090;49.270;8.696;2024-03-29T13:45:35;6.25;;;2.70;;
8094;SDS011;4090;49.270;8.696;2024-03-29T13:48:18;3.33;;;2.22;;
8094;SDS011;4090;49.270;8.696;2024-03-29T13:50:59;4.65;;;2.45;;
8094;SDS011;4090;49.270;8.696;2024-03-29T13:53:41;4.45;;;2.33;;
8094;SDS011;4090;49.270;8.696;2024-03-29T13:56:23;3.70;;;2.50;;
8094;SDS011;4090;49.270;8.696;2024-03-29T13:59:05;4.20;;;2.63;;
8094;SDS011;4090;49.270;8.696;2024-03-29T14:01:47;3.90;;;2.30;;
8094;SDS011;4090;49.270;8.696;2024-03-29T14:04:30;3.00;;;2.22;;
8094;SDS011;4090;49.270;8.696;2024-03-29T14:07:13;3.40;;;2.35;;
8094;SDS011;4090;49.270;8.696;2024-03-29T14:09:55;3.15;;;2.15;;
8094;SDS011;4090;49.270;8.696;2024-03-29T14:12:41;2.22;;;2.03;;
8094;SDS011;4090;49.270;8.696;2024-03-29T14:15:23;2.20;;;2.00;;
8094;SDS011;4090;49.270;8.696;2024-03-29T14:18:05;2.60;;;2.05;;
8094;SDS011;4090;49.270;8.696;2024-03-29T14:20:48;5.13;;;2.20;;
8094;SDS011;4090;49.270;8.696;2024-03-29T14:23:31;4.63;;;2.00;;
8094;SDS011;4090;49.270;8.696;2024-03-29T14:26:13;3.95;;;2.03;;
8094;SDS011;4090;49.270;8.696;2024-03-29T14:28:55;3.58;;;2.42;;
8094;SDS011;4090;49.270;8.696;2024-03-29T14:31:36;3.22;;;2.08;;
8094;SDS011;4090;49.270;8.696;2024-03-29T14:34:18;3.20;;;2.40;;
8094;SDS011;4090;49.270;8.696;2024-03-29T14:37:02;4.40;;;2.70;;
8094;SDS011;4090;49.270;8.696;2024-03-29T14:39:43;3.60;;;2.40;;
8094;SDS011;4090;49.270;8.696;2024-03-29T14:42:25;3.75;;;2.75;;
8094;SDS011;4090;49.270;8.696;2024-03-29T14:45:08;3.47;;;2.38;;
8094;SDS011;4090;49.270;8.696;2024-03-29T14:47:52;2.67;;;2.38;;
8094;SDS011;4090;49.270;8.696;2024-03-29T14:50:34;4.63;;;2.50;;
8094;SDS011;4090;49.270;8.696;2024-03-29T14:53:17;4.10;;;2.55;;
8094;SDS011;4090;49.270;8.696;2024-03-29T14:55:59;2.63;;;2.40;;
8094;SDS011;4090;49.270;8.696;2024-03-29T14:58:42;5.60;;;2.47;;
8094;SDS011;4090;49.270;8.696;2024-03-29T15:01:25;2.88;;;2.35;;
8094;SDS011;4090;49.270;8.696;2024-03-29T15:04:07;3.40;;;2.20;;
8094;SDS011;4090;49.270;8.696;2024-03-29T15:06:49;6.38;;;2.20;;
8094;SDS011;4090;49.270;8.696;2024-03-29T15:09:32;4.43;;;2.40;;
8094;SDS011;4090;49.270;8.696;2024-03-29T15:12:14;3.38;;;2.58;;
8094;SDS011;4090;49.270;8.696;2024-03-29T15:14:56;3.70;;;2.40;;
8094;SDS011;4090;49.270;8.696;2024-03-29T15:17:38;3.67;;;2.67;;
8094;SDS011;4090;49.270;8.696;2024-03-29T15:20:21;4.53;;;2.72;;
8094;SDS011;4090;49.270;8.696;2024-03-29T15:23:03;7.82;;;2.65;;
8094;SDS011;4090;49.270;8.696;2024-03-29T15:25:47;7.10;;;3.00;;
8094;SDS011;4090;49.270;8.696;2024-03-29T15:28:28;4.22;;;3.10;;
8094;SDS011;4090;49.270;8.696;2024-03-29T15:31:28;3.58;;;2.70;;
8094;SDS011;4090;49.270;8.696;2024-03-29T15:34:10;4.88;;;2.70;;
8094;SDS011;4090;49.270;8.696;2024-03-29T15:36:52;3.22;;;2.65;;
8094;SDS011;4090;49.270;8.696;2024-03-29T15:39:34;3.47;;;2.67;;
8094;SDS011;4090;49.270;8.696;2024-03-29T15:42:17;4.88;;;2.95;;
8094;SDS011;4090;49.270;8.696;2024-03-29T15:44:59;3.20;;;2.90;;
8094;SDS011;4090;49.270;8.696;2024-03-29T15:47:41;5.40;;;2.95;;
8094;SDS011;4090;49.270;8.696;2024-03-29T15:50:23;4.95;;;3.38;;
8094;SDS011;4090;49.270;8.696;2024-03-29T15:53:05;3.83;;;2.90;;
8094;SDS011;4090;49.270;8.696;2024-03-29T15:55:48;4.40;;;3.03;;
8094;SDS011;4090;49.270;8.696;2024-03-29T15:58:31;4.60;;;3.65;;
8094;SDS011;4090;49.270;8.696;2024-03-29T16:01:13;7.10;;;3.90;;
8094;SDS011;4090;49.270;8.696;2024-03-29T16:03:54;6.82;;;4.30;;
8094;SDS011;4090;49.270;8.696;2024-03-29T16:06:36;7.40;;;4.10;;
8094;SDS011;4090;49.270;8.696;2024-03-29T16:09:18;4.65;;;3.75;;
8094;SDS011;4090;49.270;8.696;2024-03-29T16:12:00;5.70;;;3.35;;
8094;SDS011;4090;49.270;8.696;2024-03-29T16:14:43;3.20;;;2.90;;
8094;SDS011;4090;49.270;8.696;2024-03-29T16:17:25;4.13;;;2.72;;
8094;SDS011;4090;49.270;8.696;2024-03-29T16:20:07;3.40;;;2.95;;
8094;SDS011;4090;49.270;8.696;2024-03-29T16:22:49;4.00;;;3.00;;
8094;SDS011;4090;49.270;8.696;2024-03-29T16:25:31;3.95;;;2.83;;
8094;SDS011;4090;49.270;8.696;2024-03-29T16:28:12;5.63;;;3.13;;
8094;SDS011;4090;49.270;8.696;2024-03-29T16:30:56;3.95;;;3.00;;
8094;SDS011;4090;49.270;8.696;2024-03-29T16:33:38;2.88;;;2.58;;
8094;SDS011;4090;49.270;8.696;2024-03-29T16:36:21;2.97;;;2.65;;
8094;SDS011;4090;49.270;8.696;2024-03-29T16:39:02;4.38;;;3.03;;
8094;SDS011;4090;49.270;8.696;2024-03-29T16:41:44;3.05;;;2.58;;
8094;SDS011;4090;49.270;8.696;2024-03-29T16:44:27;5.13;;;2.90;;
8094;SDS011;4090;49.270;8.696;2024-03-29T16:47:10;4.45;;;3.00;;
8094;SDS011;4090;49.270;8.696;2024-03-29T16:49:51;6.25;;;3.50;;